Jean Anne — WDC3786 — position and weather

sailwx.info

Track history (hours):
 
Tides and Currents Weather Stations Pressure Air Temp Water Temp Dewpoint Dewpoint Depression Visibility Wind Speed Wind Dir Waves Ship Positions

Jean Anne

Owner: PASHA HAWAII TRANSPORT LINES LLC, National City, CA. More information available from US FCC via Universal Licensing System and Coast Guard Vessel Documentation Center.

Last reported at 2016-Dec-05 00:00 UTC. Time now 2016-Dec-08 00:17 UTC.
Position N 24°06' W 149°48'.

Type: Cargo ship. MMSI: 367003380.

Wind from 140 at 30 knots

Barometer 1015.2 mb
Air temperature 24.0 ° C
Visibility: greater than 10.8 NM
Dewpoint 21.6 ° C

Date/timePositionNaut miles runAvg speedWind from/ knotsBaromVisibWave heightAir tempDewpointWater temp
2016-Dec-05 00:00N 24°06' W 149°48'   140 / 301015.210.8 24.021.6
2016-Dec-01 06:11N 31°15' W 118°25'2020.1
2016-Dec-01 05:10N 31°31' W 118°11'1219.6
2016-Dec-01 04:33N 31°41' W 118°03'1919.4
2016-Dec-01 03:33N 31°57' W 117°49'1919.3
2016-Dec-01 02:33N 32°12' W 117°36'1715.9
2016-Dec-01 01:30N 32°26' W 117°24'1010.8
2016-Dec-01 00:33N 32°34' W 117°17'10 9.9
2016-Nov-30 23:33N 32°42' W 117°10'3 3.3
2016-Nov-30 22:33N 32°39' W 117°07'0 0.0
2016-Nov-30 21:31N 32°39' W 117°07'0 0.0
2016-Nov-30 20:31N 32°39' W 117°07'0 0.0
2016-Nov-30 19:31N 32°39' W 117°07'0 0.0
2016-Nov-30 18:31N 32°39' W 117°07'0 0.0
2016-Nov-30 17:31N 32°39' W 117°07'0 0.0
2016-Nov-30 16:34N 32°39' W 117°07'0 0.0
2016-Nov-30 15:33N 32°39' W 117°07'0 0.0
2016-Nov-30 14:33N 32°39' W 117°07'0 0.0
2016-Nov-30 13:33N 32°39' W 117°07'0 0.0
2016-Nov-30 12:33N 32°39' W 117°07'0 0.0
2016-Nov-30 11:33N 32°39' W 117°07'0 0.0
2016-Nov-30 10:33N 32°39' W 117°07'0 0.0
2016-Nov-30 09:33N 32°39' W 117°07'0 0.0
2016-Nov-30 08:33N 32°39' W 117°07'0 0.0
2016-Nov-30 07:33N 32°39' W 117°07'0 0.0
2016-Nov-30 06:33N 32°39' W 117°07'0 0.0
2016-Nov-30 05:33N 32°39' W 117°07'0 0.0
2016-Nov-30 04:33N 32°39' W 117°07'0 0.0
2016-Nov-30 03:33N 32°39' W 117°07'0 0.0
2016-Nov-30 02:33N 32°39' W 117°07'0 0.0
2016-Nov-30 01:33N 32°39' W 117°07'0 0.0
2016-Nov-30 00:33N 32°39' W 117°07'0 0.0
2016-Nov-29 23:30N 32°39' W 117°07'0 0.0
2016-Nov-29 22:33N 32°39' W 117°07'0 0.0
2016-Nov-29 21:33N 32°39' W 117°07'0 0.0
2016-Nov-29 20:33N 32°39' W 117°07'0 0.0
2016-Nov-29 19:33N 32°39' W 117°07'0 0.0
2016-Nov-29 18:33N 32°39' W 117°07'0 0.0
2016-Nov-29 17:30N 32°39' W 117°07'0 0.0
2016-Nov-29 16:33N 32°39' W 117°07'0 0.0
2016-Nov-29 15:33N 32°39' W 117°07'0 0.0
2016-Nov-29 14:33N 32°39' W 117°07'1 0.7
2016-Nov-29 13:33N 32°40' W 117°08'6 6.1
2016-Nov-29 12:33N 32°38' W 117°14'10 9.9
2016-Nov-29 11:33N 32°29' W 117°21'1515.2
2016-Nov-29 10:33N 32°17' W 117°32'1916.0
2016-Nov-29 09:23N 32°02' W 117°45'  
Track history (hours):
 
Tides and Currents Weather Stations Pressure Air Temp Water Temp Dewpoint Dewpoint Depression Visibility Wind Speed Wind Dir Waves Ship Positions

Jean Anne

Owner: PASHA HAWAII TRANSPORT LINES LLC, National City, CA. More information available from US FCC via Universal Licensing System and Coast Guard Vessel Documentation Center.

Last reported at 2016-Dec-05 00:00 UTC. Time now 2016-Dec-08 00:17 UTC.
Position N 24°06' W 149°48'.

Type: Cargo ship. MMSI: 367003380.

Wind from 140 at 30 knots

Barometer 1015.2 mb
Air temperature 24.0 ° C
Visibility: greater than 10.8 NM
Dewpoint 21.6 ° C

Date/timePositionNaut miles runAvg speedWind from/ knotsBaromVisibWave heightAir tempDewpointWater temp
2016-Dec-05 00:00N 24°06' W 149°48'   140 / 301015.210.8 24.021.6
2016-Dec-01 06:11N 31°15' W 118°25'2020.1
2016-Dec-01 05:10N 31°31' W 118°11'1219.6
2016-Dec-01 04:33N 31°41' W 118°03'1919.4
2016-Dec-01 03:33N 31°57' W 117°49'1919.3
2016-Dec-01 02:33N 32°12' W 117°36'1715.9
2016-Dec-01 01:30N 32°26' W 117°24'1010.8
2016-Dec-01 00:33N 32°34' W 117°17'10 9.9
2016-Nov-30 23:33N 32°42' W 117°10'3 3.3
2016-Nov-30 22:33N 32°39' W 117°07'0 0.0
2016-Nov-30 21:31N 32°39' W 117°07'0 0.0
2016-Nov-30 20:31N 32°39' W 117°07'0 0.0
2016-Nov-30 19:31N 32°39' W 117°07'0 0.0
2016-Nov-30 18:31N 32°39' W 117°07'0 0.0
2016-Nov-30 17:31N 32°39' W 117°07'0 0.0
2016-Nov-30 16:34N 32°39' W 117°07'0 0.0
2016-Nov-30 15:33N 32°39' W 117°07'0 0.0
2016-Nov-30 14:33N 32°39' W 117°07'0 0.0
2016-Nov-30 13:33N 32°39' W 117°07'0 0.0
2016-Nov-30 12:33N 32°39' W 117°07'0 0.0
2016-Nov-30 11:33N 32°39' W 117°07'0 0.0
2016-Nov-30 10:33N 32°39' W 117°07'0 0.0
2016-Nov-30 09:33N 32°39' W 117°07'0 0.0
2016-Nov-30 08:33N 32°39' W 117°07'0 0.0
2016-Nov-30 07:33N 32°39' W 117°07'0 0.0
2016-Nov-30 06:33N 32°39' W 117°07'0 0.0
2016-Nov-30 05:33N 32°39' W 117°07'0 0.0
2016-Nov-30 04:33N 32°39' W 117°07'0 0.0
2016-Nov-30 03:33N 32°39' W 117°07'0 0.0
2016-Nov-30 02:33N 32°39' W 117°07'0 0.0
2016-Nov-30 01:33N 32°39' W 117°07'0 0.0
2016-Nov-30 00:33N 32°39' W 117°07'0 0.0
2016-Nov-29 23:30N 32°39' W 117°07'0 0.0
2016-Nov-29 22:33N 32°39' W 117°07'0 0.0
2016-Nov-29 21:33N 32°39' W 117°07'0 0.0
2016-Nov-29 20:33N 32°39' W 117°07'0 0.0
2016-Nov-29 19:33N 32°39' W 117°07'0 0.0
2016-Nov-29 18:33N 32°39' W 117°07'0 0.0
2016-Nov-29 17:30N 32°39' W 117°07'0 0.0
2016-Nov-29 16:33N 32°39' W 117°07'0 0.0
2016-Nov-29 15:33N 32°39' W 117°07'0 0.0
2016-Nov-29 14:33N 32°39' W 117°07'1 0.7
2016-Nov-29 13:33N 32°40' W 117°08'6 6.1
2016-Nov-29 12:33N 32°38' W 117°14'10 9.9
2016-Nov-29 11:33N 32°29' W 117°21'1515.2
2016-Nov-29 10:33N 32°17' W 117°32'1916.0
2016-Nov-29 09:23N 32°02' W 117°45'  

Dump ship's entire track history